createdAt,value
2022-08-02T00:00:26.000Z,19.54
2022-08-02T00:01:26.000Z,19.56
2022-08-02T00:02:26.000Z,19.55
2022-08-02T00:03:26.000Z,19.56
2022-08-02T00:04:26.000Z,19.55
2022-08-02T00:05:26.000Z,19.56
2022-08-02T00:06:26.000Z,19.55
2022-08-02T00:07:26.000Z,19.56
2022-08-02T00:08:26.000Z,19.54
2022-08-02T00:09:26.000Z,19.58
2022-08-02T00:10:26.000Z,19.62
2022-08-02T00:11:26.000Z,19.59
2022-08-02T00:12:26.000Z,19.63
2022-08-02T00:13:26.000Z,19.62
2022-08-02T00:14:26.000Z,19.66
2022-08-02T00:15:26.000Z,19.62
2022-08-02T00:16:26.000Z,19.63
2022-08-02T00:17:26.000Z,19.59
2022-08-02T00:18:26.000Z,19.64
2022-08-02T00:18:26.000Z,19.64
2022-08-02T00:19:26.000Z,19.59
2022-08-02T00:19:26.000Z,19.59
2022-08-02T00:20:26.000Z,19.59
2022-08-02T00:20:26.000Z,19.59
2022-08-02T00:21:26.000Z,19.59
2022-08-02T00:21:26.000Z,19.59
2022-08-02T00:22:26.000Z,19.62
2022-08-02T00:22:26.000Z,19.62
2022-08-02T00:23:26.000Z,19.56
2022-08-02T00:24:26.000Z,19.59
2022-08-02T00:25:26.000Z,19.54
2022-08-02T00:26:26.000Z,19.56
2022-08-02T00:27:26.000Z,19.54
2022-08-02T00:28:26.000Z,19.51
2022-08-02T00:28:26.000Z,19.51
2022-08-02T00:29:26.000Z,19.48
2022-08-02T00:29:26.000Z,19.48
2022-08-02T00:30:26.000Z,19.47
2022-08-02T00:30:26.000Z,19.47
2022-08-02T00:31:26.000Z,19.48
2022-08-02T00:31:26.000Z,19.48
2022-08-02T00:32:26.000Z,19.48
2022-08-02T00:32:26.000Z,19.48
2022-08-02T00:33:26.000Z,19.47
2022-08-02T00:34:26.000Z,19.44
2022-08-02T00:35:26.000Z,19.48
2022-08-02T00:36:26.000Z,19.47
2022-08-02T00:37:26.000Z,19.48
2022-08-02T00:38:26.000Z,19.47
2022-08-02T00:39:26.000Z,19.45
2022-08-02T00:40:26.000Z,19.49
2022-08-02T00:41:26.000Z,19.47
2022-08-02T00:42:26.000Z,19.49
2022-08-02T00:43:26.000Z,19.48
2022-08-02T00:44:26.000Z,19.49
2022-08-02T00:45:26.000Z,19.49
2022-08-02T00:46:26.000Z,19.47
2022-08-02T00:47:26.000Z,19.51
2022-08-02T00:48:26.000Z,19.47
2022-08-02T00:49:26.000Z,19.45
2022-08-02T00:50:26.000Z,19.45
2022-08-02T00:51:26.000Z,19.40
2022-08-02T00:52:26.000Z,19.39
2022-08-02T00:53:26.000Z,19.39
2022-08-02T00:54:26.000Z,19.39
2022-08-02T00:55:26.000Z,19.37
2022-08-02T00:56:26.000Z,19.34
2022-08-02T00:57:26.000Z,19.30
2022-08-02T00:58:26.000Z,19.33
2022-08-02T00:59:26.000Z,19.29
2022-08-02T01:00:26.000Z,19.29
2022-08-02T01:01:26.000Z,19.24
2022-08-02T01:02:26.000Z,19.19
2022-08-02T01:03:26.000Z,19.21
2022-08-02T01:04:26.000Z,19.14
2022-08-02T01:05:26.000Z,19.11
2022-08-02T01:06:26.000Z,19.08
2022-08-02T01:07:26.000Z,19.02
2022-08-02T01:08:26.000Z,19.04
2022-08-02T01:09:26.000Z,18.98
2022-08-02T01:10:26.000Z,18.96
2022-08-02T01:11:26.000Z,18.93
2022-08-02T01:12:26.000Z,18.92
2022-08-02T01:13:26.000Z,18.86
2022-08-02T01:14:26.000Z,18.86
2022-08-02T01:15:26.000Z,18.84
2022-08-02T01:16:26.000Z,18.81
2022-08-02T01:17:26.000Z,18.78
2022-08-02T01:18:26.000Z,18.75
2022-08-02T01:19:26.000Z,18.71
2022-08-02T01:20:26.000Z,18.71
2022-08-02T01:21:26.000Z,18.70
2022-08-02T01:22:26.000Z,18.68
2022-08-02T01:23:26.000Z,18.63
2022-08-02T01:24:25.000Z,18.58
2022-08-02T01:25:25.000Z,18.59
2022-08-02T01:26:25.000Z,18.53
2022-08-02T01:27:25.000Z,18.55
2022-08-02T01:28:25.000Z,18.53
2022-08-02T01:29:25.000Z,18.52
2022-08-02T01:30:25.000Z,18.50
2022-08-02T01:31:25.000Z,18.47
2022-08-02T01:32:25.000Z,18.45
2022-08-02T01:33:25.000Z,18.45
2022-08-02T01:34:25.000Z,18.43
2022-08-02T01:35:25.000Z,18.49
2022-08-02T01:36:25.000Z,18.41
2022-08-02T01:37:25.000Z,18.37
2022-08-02T01:38:25.000Z,18.37
2022-08-02T01:39:25.000Z,18.37
2022-08-02T01:40:25.000Z,18.38
2022-08-02T01:41:25.000Z,18.33
2022-08-02T01:42:25.000Z,18.34
2022-08-02T01:43:25.000Z,18.33
2022-08-02T01:44:25.000Z,18.28
2022-08-02T01:45:25.000Z,18.31
2022-08-02T01:46:25.000Z,18.33
2022-08-02T01:47:25.000Z,18.31
2022-08-02T01:48:25.000Z,18.31
2022-08-02T01:49:25.000Z,18.34
2022-08-02T01:50:25.000Z,18.34
2022-08-02T01:51:25.000Z,18.33
2022-08-02T01:52:25.000Z,18.31
2022-08-02T01:53:25.000Z,18.29
2022-08-02T01:54:25.000Z,18.28
2022-08-02T01:55:25.000Z,18.33
2022-08-02T01:56:25.000Z,18.26
2022-08-02T01:57:25.000Z,18.34
2022-08-02T01:58:25.000Z,18.34
2022-08-02T01:59:25.000Z,18.31
2022-08-02T02:00:25.000Z,18.28
2022-08-02T02:01:25.000Z,18.31
2022-08-02T02:02:25.000Z,18.33
2022-08-02T02:03:25.000Z,18.29
2022-08-02T02:04:25.000Z,18.29
2022-08-02T02:05:25.000Z,18.29
2022-08-02T02:06:25.000Z,18.28
2022-08-02T02:07:25.000Z,18.28
2022-08-02T02:08:25.000Z,18.23
2022-08-02T02:09:25.000Z,18.23
2022-08-02T02:10:25.000Z,18.22
2022-08-02T02:11:25.000Z,18.19
2022-08-02T02:12:25.000Z,18.19
2022-08-02T02:13:25.000Z,18.15
2022-08-02T02:14:25.000Z,18.16
2022-08-02T02:15:25.000Z,18.18
2022-08-02T02:16:25.000Z,18.13
2022-08-02T02:17:25.000Z,18.11
2022-08-02T02:18:25.000Z,18.10
2022-08-02T02:19:25.000Z,18.05
2022-08-02T02:20:25.000Z,18.10
2022-08-02T02:21:25.000Z,18.03
2022-08-02T02:22:25.000Z,18.04
2022-08-02T02:23:25.000Z,18.03
2022-08-02T02:24:25.000Z,18.01
2022-08-02T02:25:25.000Z,17.98
2022-08-02T02:26:25.000Z,17.97
2022-08-02T02:27:25.000Z,17.92
2022-08-02T02:28:25.000Z,17.98
2022-08-02T02:29:25.000Z,17.95
2022-08-02T02:30:25.000Z,17.94
2022-08-02T02:31:25.000Z,17.95
2022-08-02T02:32:25.000Z,17.95
2022-08-02T02:33:25.000Z,17.94
2022-08-02T02:34:25.000Z,18.00
2022-08-02T02:35:25.000Z,17.98
2022-08-02T02:36:25.000Z,18.01
2022-08-02T02:37:25.000Z,17.98
2022-08-02T02:38:25.000Z,17.97
2022-08-02T02:39:25.000Z,17.98
2022-08-02T02:40:25.000Z,18.00
2022-08-02T02:41:25.000Z,17.97
2022-08-02T02:42:25.000Z,17.98
2022-08-02T02:43:25.000Z,17.98
2022-08-02T02:44:25.000Z,17.94
2022-08-02T02:45:25.000Z,17.95
2022-08-02T02:46:25.000Z,17.92
2022-08-02T02:47:25.000Z,17.90
2022-08-02T02:48:25.000Z,17.90
2022-08-02T02:49:25.000Z,17.92
2022-08-02T02:50:25.000Z,17.89
2022-08-02T02:51:25.000Z,17.87
2022-08-02T02:52:25.000Z,17.89
2022-08-02T03:00:42.000Z,17.90
2022-08-02T03:00:42.000Z,17.86
2022-08-02T03:01:42.000Z,17.90
2022-08-02T03:02:42.000Z,17.95
2022-08-02T03:03:42.000Z,17.89
2022-08-02T03:04:42.000Z,17.95
2022-08-02T03:05:42.000Z,18.00
2022-08-02T03:06:42.000Z,18.00
2022-08-02T03:07:42.000Z,17.95
2022-08-02T03:08:42.000Z,18.00
2022-08-02T03:09:42.000Z,18.01
2022-08-02T03:10:42.000Z,18.03
2022-08-02T03:11:42.000Z,18.01
2022-08-02T03:12:42.000Z,18.04
2022-08-02T03:13:42.000Z,18.04
2022-08-02T03:14:42.000Z,18.03
2022-08-02T03:15:42.000Z,18.05
2022-08-02T03:16:42.000Z,18.07
2022-08-02T03:17:42.000Z,18.10
2022-08-02T03:18:42.000Z,18.10
2022-08-02T03:19:42.000Z,18.11
2022-08-02T03:20:42.000Z,18.13
2022-08-02T03:21:42.000Z,18.15
2022-08-02T03:22:42.000Z,18.11
2022-08-02T03:23:42.000Z,18.11
2022-08-02T03:24:42.000Z,18.13
2022-08-02T03:25:42.000Z,18.15
2022-08-02T03:26:42.000Z,18.15
2022-08-02T03:27:42.000Z,18.15
2022-08-02T03:28:42.000Z,18.18
2022-08-02T03:29:42.000Z,18.22
2022-08-02T03:30:42.000Z,18.22
2022-08-02T03:31:42.000Z,18.23
2022-08-02T03:32:42.000Z,18.25
2022-08-02T03:35:59.000Z,18.23
2022-08-02T03:35:59.000Z,18.25
2022-08-02T03:36:59.000Z,18.31
2022-08-02T03:37:59.000Z,18.31
2022-08-02T03:38:59.000Z,18.28
2022-08-02T03:39:59.000Z,18.28
2022-08-02T03:40:59.000Z,18.28
2022-08-02T03:41:59.000Z,18.33
2022-08-02T03:42:59.000Z,18.31
2022-08-02T03:43:59.000Z,18.33
2022-08-02T03:44:59.000Z,18.31
2022-08-02T03:45:59.000Z,18.33
2022-08-02T03:46:59.000Z,18.34
2022-08-02T03:47:59.000Z,18.35
2022-08-02T03:48:59.000Z,18.33
2022-08-02T03:49:59.000Z,18.33
2022-08-02T03:50:59.000Z,18.31
2022-08-02T03:51:59.000Z,18.31
2022-08-02T03:52:59.000Z,18.31
2022-08-02T03:53:59.000Z,18.34
2022-08-02T03:54:59.000Z,18.33
2022-08-02T03:55:59.000Z,18.28
2022-08-02T03:56:59.000Z,18.29
2022-08-02T03:57:59.000Z,18.26
2022-08-02T03:58:59.000Z,18.26
2022-08-02T03:59:59.000Z,18.26
2022-08-02T04:00:59.000Z,18.26
2022-08-02T04:01:59.000Z,18.22
2022-08-02T04:02:59.000Z,18.23
2022-08-02T04:03:59.000Z,18.19
2022-08-02T04:04:59.000Z,18.23
2022-08-02T04:05:59.000Z,18.18
2022-08-02T04:06:59.000Z,18.18
2022-08-02T04:07:59.000Z,18.15
2022-08-02T04:08:59.000Z,18.16
2022-08-02T04:09:59.000Z,18.16
2022-08-02T04:10:59.000Z,18.18
2022-08-02T04:11:59.000Z,18.18
2022-08-02T04:12:59.000Z,18.16
2022-08-02T04:13:59.000Z,18.20
2022-08-02T04:14:59.000Z,18.19
2022-08-02T04:15:59.000Z,18.19
2022-08-02T04:16:59.000Z,18.20
2022-08-02T04:17:59.000Z,18.20
2022-08-02T04:18:59.000Z,18.20
2022-08-02T04:19:59.000Z,18.20
2022-08-02T04:19:59.000Z,18.20
2022-08-02T04:20:59.000Z,18.20
2022-08-02T04:20:59.000Z,18.20
2022-08-02T04:21:59.000Z,18.22
2022-08-02T04:21:59.000Z,18.22
2022-08-02T04:22:59.000Z,18.20
2022-08-02T04:22:59.000Z,18.20
2022-08-02T04:23:59.000Z,18.20
2022-08-02T04:23:59.000Z,18.20
2022-08-02T04:24:59.000Z,18.20
2022-08-02T04:25:59.000Z,18.20
2022-08-02T04:26:59.000Z,18.22
2022-08-02T04:27:59.000Z,18.22
2022-08-02T04:28:59.000Z,18.20
2022-08-02T04:29:59.000Z,18.23
2022-08-02T04:29:59.000Z,18.23
2022-08-02T04:30:59.000Z,18.20
2022-08-02T04:30:59.000Z,18.20
2022-08-02T04:31:59.000Z,18.20
2022-08-02T04:31:59.000Z,18.20
2022-08-02T04:32:58.000Z,18.26
2022-08-02T04:32:58.000Z,18.26
2022-08-02T04:33:58.000Z,18.25
2022-08-02T04:33:58.000Z,18.25
2022-08-02T04:34:58.000Z,18.28
2022-08-02T04:35:58.000Z,18.34
2022-08-02T04:36:58.000Z,18.35
2022-08-02T04:37:58.000Z,18.37
2022-08-02T04:38:58.000Z,18.43
2022-08-02T04:39:58.000Z,18.49
2022-08-02T04:40:58.000Z,18.53
2022-08-02T04:41:58.000Z,18.62
2022-08-02T04:42:58.000Z,18.70
2022-08-02T04:43:58.000Z,18.78
2022-08-02T04:44:58.000Z,18.88
2022-08-02T04:45:58.000Z,18.95
2022-08-02T04:46:58.000Z,19.04
2022-08-02T04:47:58.000Z,19.11
2022-08-02T04:48:58.000Z,19.19
2022-08-02T04:49:58.000Z,19.26
2022-08-02T04:50:58.000Z,19.33
2022-08-02T04:51:58.000Z,19.41
2022-08-02T04:52:58.000Z,19.44
2022-08-02T04:53:58.000Z,19.51
2022-08-02T04:54:58.000Z,19.56
2022-08-02T04:55:58.000Z,19.59
2022-08-02T04:56:58.000Z,19.59
2022-08-02T04:57:58.000Z,19.71
2022-08-02T04:58:58.000Z,19.69
2022-08-02T04:59:58.000Z,19.70
2022-08-02T05:00:58.000Z,19.73
2022-08-02T05:01:58.000Z,19.71
2022-08-02T05:02:58.000Z,19.77
2022-08-02T05:03:58.000Z,19.82
2022-08-02T05:04:58.000Z,19.89
2022-08-02T05:05:58.000Z,19.95
2022-08-02T05:06:58.000Z,19.96
2022-08-02T05:07:58.000Z,19.96
2022-08-02T05:08:58.000Z,20.03
2022-08-02T05:09:58.000Z,20.02
2022-08-02T05:09:58.000Z,20.02
2022-08-02T05:10:58.000Z,20.04
2022-08-02T05:10:58.000Z,20.04
2022-08-02T05:11:58.000Z,20.03
2022-08-02T05:11:58.000Z,20.03
2022-08-02T05:12:58.000Z,20.09
2022-08-02T05:12:58.000Z,20.09
2022-08-02T05:13:58.000Z,20.09
2022-08-02T05:13:58.000Z,20.09
2022-08-02T05:14:58.000Z,20.11
2022-08-02T05:15:58.000Z,20.09
2022-08-02T05:16:58.000Z,20.10
2022-08-02T05:17:58.000Z,20.14
2022-08-02T05:18:58.000Z,20.13
2022-08-02T05:19:58.000Z,20.16
2022-08-02T05:20:58.000Z,20.16
2022-08-02T05:21:58.000Z,20.22
2022-08-02T05:22:58.000Z,20.24
2022-08-02T05:23:58.000Z,20.28
2022-08-02T05:24:58.000Z,20.31
2022-08-02T05:25:58.000Z,20.37
2022-08-02T05:26:58.000Z,20.39
2022-08-02T05:27:58.000Z,20.36
2022-08-02T05:28:58.000Z,20.43
2022-08-02T05:29:58.000Z,20.43
2022-08-02T05:30:58.000Z,20.47
2022-08-02T05:31:58.000Z,20.47
2022-08-02T05:32:58.000Z,20.55
2022-08-02T05:33:58.000Z,20.59
2022-08-02T05:34:58.000Z,20.59
2022-08-02T05:34:58.000Z,20.59
2022-08-02T05:35:58.000Z,20.69
2022-08-02T05:35:58.000Z,20.69
2022-08-02T05:36:58.000Z,20.74
2022-08-02T05:36:58.000Z,20.74
2022-08-02T05:37:58.000Z,20.75
2022-08-02T05:37:58.000Z,20.75
2022-08-02T05:38:58.000Z,20.81
2022-08-02T05:38:58.000Z,20.81
2022-08-02T05:39:58.000Z,20.85
2022-08-02T05:40:58.000Z,20.88
2022-08-02T05:41:58.000Z,20.93
2022-08-02T05:42:58.000Z,20.95
2022-08-02T05:43:58.000Z,20.97
2022-08-02T05:44:58.000Z,21.00
2022-08-02T05:45:58.000Z,21.07
2022-08-02T05:46:58.000Z,21.03
2022-08-02T05:47:58.000Z,21.14
2022-08-02T05:48:58.000Z,21.14
2022-08-02T05:49:58.000Z,21.17
2022-08-02T05:50:58.000Z,21.15
2022-08-02T05:51:58.000Z,21.20
2022-08-02T05:52:58.000Z,21.18
2022-08-02T05:53:58.000Z,21.22
2022-08-02T05:54:58.000Z,21.22
2022-08-02T05:55:58.000Z,21.22
2022-08-02T05:56:58.000Z,21.20
2022-08-02T05:57:58.000Z,21.20
2022-08-02T05:58:58.000Z,21.20
2022-08-02T05:59:58.000Z,21.20
2022-08-02T06:00:58.000Z,21.21
2022-08-02T06:01:58.000Z,21.21
2022-08-02T06:02:58.000Z,21.21
2022-08-02T06:03:58.000Z,21.32
2022-08-02T06:04:57.000Z,21.43
2022-08-02T06:05:57.000Z,21.50
2022-08-02T06:06:57.000Z,21.54
2022-08-02T06:07:57.000Z,21.58
2022-08-02T06:08:57.000Z,21.69
2022-08-02T06:09:57.000Z,21.73
2022-08-02T06:10:57.000Z,21.83
2022-08-02T06:11:57.000Z,21.91
2022-08-02T06:12:57.000Z,21.98
2022-08-02T06:13:57.000Z,22.10
2022-08-02T06:14:57.000Z,22.23
2022-08-02T06:15:57.000Z,22.32
2022-08-02T06:16:57.000Z,22.39
2022-08-02T06:17:57.000Z,22.47
2022-08-02T06:18:57.000Z,22.51
2022-08-02T06:19:57.000Z,22.60
2022-08-02T06:20:57.000Z,22.66
2022-08-02T06:21:57.000Z,22.65
2022-08-02T06:22:57.000Z,22.65
2022-08-02T06:23:57.000Z,22.63
2022-08-02T06:24:57.000Z,22.60
2022-08-02T06:25:57.000Z,22.57
2022-08-02T06:26:57.000Z,22.59
2022-08-02T06:27:57.000Z,22.48
2022-08-02T06:28:57.000Z,22.43
2022-08-02T06:29:57.000Z,22.38
2022-08-02T06:30:57.000Z,22.35
2022-08-02T06:31:57.000Z,22.29
2022-08-02T06:32:57.000Z,22.28
2022-08-02T06:33:57.000Z,22.26
2022-08-02T06:34:57.000Z,22.26
2022-08-02T06:35:57.000Z,22.28
2022-08-02T06:36:57.000Z,22.29
2022-08-02T06:37:57.000Z,22.33
2022-08-02T06:38:57.000Z,22.33
2022-08-02T06:39:57.000Z,22.38
2022-08-02T06:40:57.000Z,22.33
2022-08-02T06:41:57.000Z,22.38
2022-08-02T06:42:57.000Z,22.35
2022-08-02T06:43:57.000Z,22.41
2022-08-02T06:44:57.000Z,22.45
2022-08-02T06:45:57.000Z,22.47
2022-08-02T06:46:57.000Z,22.53
2022-08-02T06:47:57.000Z,22.57
2022-08-02T06:48:57.000Z,22.55
2022-08-02T06:49:57.000Z,22.62
2022-08-02T06:50:57.000Z,22.62
2022-08-02T06:51:57.000Z,22.70
2022-08-02T06:52:57.000Z,22.75
2022-08-02T06:53:57.000Z,22.76
2022-08-02T06:54:57.000Z,22.78
2022-08-02T06:55:57.000Z,22.83
2022-08-02T06:56:57.000Z,22.90
2022-08-02T06:57:57.000Z,22.96
2022-08-02T06:58:57.000Z,22.98
2022-08-02T07:02:14.000Z,23.15
2022-08-02T07:02:14.000Z,23.09
2022-08-02T07:03:14.000Z,23.20
2022-08-02T07:04:14.000Z,23.20
2022-08-02T07:05:14.000Z,23.27
2022-08-02T07:06:14.000Z,23.34
2022-08-02T07:07:14.000Z,23.39
2022-08-02T07:08:14.000Z,23.46
2022-08-02T07:09:14.000Z,23.50
2022-08-02T07:10:14.000Z,23.55
2022-08-02T07:11:14.000Z,23.61
2022-08-02T07:12:14.000Z,23.58
2022-08-02T07:13:14.000Z,23.65
2022-08-02T07:14:14.000Z,23.59
2022-08-02T07:15:14.000Z,23.59
2022-08-02T07:16:14.000Z,23.58
2022-08-02T07:16:14.000Z,23.58
2022-08-02T07:17:14.000Z,23.69
2022-08-02T07:17:14.000Z,23.69
2022-08-02T07:18:14.000Z,23.73
2022-08-02T07:18:14.000Z,23.73
2022-08-02T07:19:14.000Z,23.87
2022-08-02T07:19:14.000Z,23.87
2022-08-02T07:20:14.000Z,23.96
2022-08-02T07:20:14.000Z,23.96
2022-08-02T07:21:14.000Z,24.01
2022-08-02T07:22:14.000Z,24.08
2022-08-02T07:23:14.000Z,24.14
2022-08-02T07:24:14.000Z,24.18
2022-08-02T07:25:14.000Z,24.10
2022-08-02T07:26:14.000Z,24.18
2022-08-02T07:27:14.000Z,24.20
2022-08-02T07:28:14.000Z,24.28
2022-08-02T07:29:14.000Z,24.36
2022-08-02T07:30:14.000Z,24.38
2022-08-02T07:31:14.000Z,24.36
2022-08-02T07:32:14.000Z,24.45
2022-08-02T07:33:14.000Z,24.55
2022-08-02T07:34:14.000Z,24.63
2022-08-02T07:35:14.000Z,24.70
2022-08-02T07:36:14.000Z,24.84
2022-08-02T07:37:14.000Z,24.86
2022-08-02T07:38:14.000Z,24.95
2022-08-02T07:39:14.000Z,25.08
2022-08-02T07:40:14.000Z,25.26
2022-08-02T07:41:14.000Z,25.35
2022-08-02T07:42:14.000Z,25.40
2022-08-02T07:43:14.000Z,25.38
2022-08-02T07:44:14.000Z,25.36
2022-08-02T07:45:14.000Z,25.16
2022-08-02T07:46:14.000Z,25.14
2022-08-02T07:47:14.000Z,25.18
2022-08-02T07:48:14.000Z,25.28
2022-08-02T07:49:14.000Z,25.26
2022-08-02T07:50:14.000Z,25.28
2022-08-02T07:51:14.000Z,25.38
2022-08-02T07:52:14.000Z,25.41
2022-08-02T07:53:14.000Z,25.48
2022-08-02T07:54:14.000Z,25.46
2022-08-02T07:55:14.000Z,25.59
2022-08-02T07:56:14.000Z,25.68
2022-08-02T07:57:14.000Z,25.75
2022-08-02T07:58:14.000Z,25.90
2022-08-02T07:59:13.000Z,25.87
2022-08-02T08:00:13.000Z,25.98
2022-08-02T08:01:13.000Z,26.06
2022-08-02T08:01:13.000Z,26.06
2022-08-02T08:02:13.000Z,26.16
2022-08-02T08:02:13.000Z,26.16
2022-08-02T08:03:13.000Z,26.26
2022-08-02T08:03:13.000Z,26.26
2022-08-02T08:04:13.000Z,26.31
2022-08-02T08:04:13.000Z,26.31
2022-08-02T08:05:13.000Z,26.15
2022-08-02T08:05:13.000Z,26.15
2022-08-02T08:06:13.000Z,26.06
2022-08-02T08:07:13.000Z,26.09
2022-08-02T08:08:13.000Z,26.19
2022-08-02T08:09:13.000Z,26.25
2022-08-02T08:10:13.000Z,26.34
2022-08-02T08:11:13.000Z,26.44
2022-08-02T08:12:13.000Z,26.58
2022-08-02T08:13:13.000Z,26.73
2022-08-02T08:14:13.000Z,26.73
2022-08-02T08:15:13.000Z,26.81
2022-08-02T08:20:30.000Z,26.77
2022-08-02T08:20:30.000Z,26.80
2022-08-02T08:21:30.000Z,26.92
2022-08-02T08:22:30.000Z,26.97
2022-08-02T08:23:30.000Z,27.02
2022-08-02T08:24:30.000Z,27.02
2022-08-02T08:25:30.000Z,27.11
2022-08-02T08:26:30.000Z,27.12
2022-08-02T08:27:30.000Z,27.20
2022-08-02T08:28:30.000Z,27.20
2022-08-02T08:29:30.000Z,27.26
2022-08-02T08:30:30.000Z,27.33
2022-08-02T08:31:30.000Z,27.42
2022-08-02T08:32:30.000Z,27.51
2022-08-02T08:33:30.000Z,27.67
2022-08-02T08:34:30.000Z,27.78
2022-08-02T08:34:30.000Z,27.78
2022-08-02T08:35:30.000Z,27.85
2022-08-02T08:35:30.000Z,27.85
2022-08-02T08:36:30.000Z,27.86
2022-08-02T08:36:30.000Z,27.86
2022-08-02T08:37:30.000Z,27.77
2022-08-02T08:37:30.000Z,27.77
2022-08-02T08:38:30.000Z,27.70
2022-08-02T08:38:30.000Z,27.70
2022-08-02T08:39:30.000Z,27.55
2022-08-02T08:40:30.000Z,27.58
2022-08-02T08:41:30.000Z,27.49
2022-08-02T08:42:30.000Z,27.58
2022-08-02T08:43:30.000Z,27.60
2022-08-02T08:44:30.000Z,27.71
2022-08-02T08:44:30.000Z,27.71
2022-08-02T08:45:30.000Z,27.77
2022-08-02T08:45:30.000Z,27.77
2022-08-02T08:46:30.000Z,27.96
2022-08-02T08:46:30.000Z,27.96
2022-08-02T08:47:30.000Z,27.98
2022-08-02T08:47:30.000Z,27.98
2022-08-02T08:48:30.000Z,28.12
2022-08-02T08:48:30.000Z,28.12
2022-08-02T08:49:30.000Z,28.32
2022-08-02T08:50:30.000Z,28.42
2022-08-02T08:51:30.000Z,28.57
2022-08-02T08:52:30.000Z,28.49
2022-08-02T08:53:30.000Z,28.63
2022-08-02T08:54:30.000Z,28.67
2022-08-02T08:55:30.000Z,28.49
2022-08-02T08:56:30.000Z,28.37
2022-08-02T08:57:30.000Z,28.37
2022-08-02T08:58:30.000Z,28.19
2022-08-02T08:59:30.000Z,28.11
2022-08-02T09:00:30.000Z,28.23
2022-08-02T09:01:30.000Z,28.45
2022-08-02T09:02:30.000Z,28.45
2022-08-02T09:03:30.000Z,28.62
2022-08-02T09:04:30.000Z,28.78
2022-08-02T09:05:30.000Z,28.96
2022-08-02T09:06:30.000Z,29.12
2022-08-02T09:07:30.000Z,29.26
2022-08-02T09:08:30.000Z,29.10
2022-08-02T09:09:30.000Z,29.01
2022-08-02T09:10:30.000Z,28.89
2022-08-02T09:11:30.000Z,28.79
2022-08-02T09:12:30.000Z,28.64
2022-08-02T09:13:30.000Z,28.70
2022-08-02T09:14:30.000Z,28.63
2022-08-02T09:14:30.000Z,28.63
2022-08-02T09:15:30.000Z,28.70
2022-08-02T09:15:30.000Z,28.70
2022-08-02T09:16:30.000Z,28.89
2022-08-02T09:16:30.000Z,28.89
2022-08-02T09:17:30.000Z,28.96
2022-08-02T09:17:30.000Z,28.96
2022-08-02T09:18:30.000Z,28.96
2022-08-02T09:18:30.000Z,28.96
2022-08-02T09:19:30.000Z,29.10
2022-08-02T09:20:30.000Z,29.08
2022-08-02T09:21:30.000Z,28.88
2022-08-02T09:22:30.000Z,28.84
2022-08-02T09:23:30.000Z,28.70
2022-08-02T09:24:29.000Z,28.64
2022-08-02T09:24:29.000Z,28.64
2022-08-02T09:25:29.000Z,28.66
2022-08-02T09:25:29.000Z,28.66
2022-08-02T09:26:29.000Z,28.64
2022-08-02T09:26:29.000Z,28.64
2022-08-02T09:27:29.000Z,28.75
2022-08-02T09:27:29.000Z,28.75
2022-08-02T09:28:29.000Z,28.91
2022-08-02T09:28:29.000Z,28.91
2022-08-02T09:29:29.000Z,29.23
2022-08-02T09:30:29.000Z,29.32
2022-08-02T09:31:29.000Z,29.50
2022-08-02T09:32:29.000Z,29.72
2022-08-02T09:33:29.000Z,29.84
2022-08-02T09:34:29.000Z,29.93
2022-08-02T09:34:29.000Z,29.93
2022-08-02T09:35:29.000Z,30.12
2022-08-02T09:35:29.000Z,30.12
2022-08-02T09:36:29.000Z,30.23
2022-08-02T09:36:29.000Z,30.23
2022-08-02T09:37:29.000Z,30.39
2022-08-02T09:37:29.000Z,30.39
2022-08-02T09:38:29.000Z,30.55
2022-08-02T09:38:29.000Z,30.55
2022-08-02T09:39:29.000Z,30.73
2022-08-02T09:40:29.000Z,30.81
2022-08-02T09:41:29.000Z,30.87
2022-08-02T09:42:29.000Z,30.92
2022-08-02T09:43:29.000Z,30.99
2022-08-02T09:44:29.000Z,31.10
2022-08-02T09:45:29.000Z,31.12
2022-08-02T09:46:29.000Z,31.25
2022-08-02T09:47:29.000Z,31.34
2022-08-02T09:48:29.000Z,31.46
2022-08-02T09:49:29.000Z,31.70
2022-08-02T09:50:29.000Z,31.62
2022-08-02T09:51:29.000Z,31.69
2022-08-02T09:52:29.000Z,31.73
2022-08-02T09:53:29.000Z,31.51
2022-08-02T09:54:29.000Z,31.28
2022-08-02T09:55:29.000Z,31.00
2022-08-02T09:56:29.000Z,30.88
2022-08-02T09:57:29.000Z,30.90
2022-08-02T09:58:29.000Z,31.02
2022-08-02T09:59:29.000Z,30.94
2022-08-02T09:59:29.000Z,30.94
2022-08-02T09:59:29.000Z,30.94
2022-08-02T10:00:29.000Z,30.96
2022-08-02T10:00:29.000Z,30.96
2022-08-02T10:00:29.000Z,30.96
2022-08-02T10:01:29.000Z,30.70
2022-08-02T10:01:29.000Z,30.70
2022-08-02T10:01:29.000Z,30.70
2022-08-02T10:02:29.000Z,30.78
2022-08-02T10:02:29.000Z,30.78
2022-08-02T10:02:29.000Z,30.78
2022-08-02T10:03:29.000Z,30.81
2022-08-02T10:03:29.000Z,30.81
2022-08-02T10:03:29.000Z,30.81
2022-08-02T10:04:29.000Z,30.83
2022-08-02T10:04:29.000Z,30.83
2022-08-02T10:05:29.000Z,30.87
2022-08-02T10:05:29.000Z,30.87
2022-08-02T10:06:29.000Z,30.88
2022-08-02T10:06:29.000Z,30.88
2022-08-02T10:07:29.000Z,30.97
2022-08-02T10:07:29.000Z,30.97
2022-08-02T10:08:29.000Z,31.03
2022-08-02T10:08:29.000Z,31.03
2022-08-02T10:09:29.000Z,31.18
2022-08-02T10:10:29.000Z,31.36
2022-08-02T10:11:29.000Z,31.54
2022-08-02T10:12:29.000Z,31.51
2022-08-02T10:13:29.000Z,31.66
2022-08-02T10:14:29.000Z,31.80
2022-08-02T10:14:29.000Z,31.80
2022-08-02T10:14:29.000Z,31.80
2022-08-02T10:15:29.000Z,32.04
2022-08-02T10:15:29.000Z,32.04
2022-08-02T10:15:29.000Z,32.04
2022-08-02T10:16:29.000Z,32.12
2022-08-02T10:16:29.000Z,32.12
2022-08-02T10:16:29.000Z,32.12
2022-08-02T10:17:29.000Z,32.26
2022-08-02T10:17:29.000Z,32.26
2022-08-02T10:17:29.000Z,32.26
2022-08-02T10:18:29.000Z,32.46
2022-08-02T10:18:29.000Z,32.46
2022-08-02T10:18:29.000Z,32.46
2022-08-02T10:19:29.000Z,32.53
2022-08-02T10:19:29.000Z,32.53
2022-08-02T10:20:29.000Z,32.55
2022-08-02T10:20:29.000Z,32.55
2022-08-02T10:21:29.000Z,32.67
2022-08-02T10:21:29.000Z,32.67
2022-08-02T10:22:29.000Z,32.78
2022-08-02T10:22:29.000Z,32.78
2022-08-02T10:23:29.000Z,32.87
2022-08-02T10:23:29.000Z,32.87
2022-08-02T10:24:29.000Z,32.96
2022-08-02T10:25:29.000Z,32.95
2022-08-02T10:26:29.000Z,32.71
2022-08-02T10:27:29.000Z,32.45
2022-08-02T10:28:29.000Z,32.29
2022-08-02T10:30:46.000Z,32.34
2022-08-02T10:30:46.000Z,32.31
2022-08-02T10:31:46.000Z,32.36
2022-08-02T10:32:46.000Z,32.52
2022-08-02T10:33:46.000Z,32.64
2022-08-02T10:34:46.000Z,32.64
2022-08-02T10:35:46.000Z,32.77
2022-08-02T10:36:46.000Z,33.00
2022-08-02T10:37:46.000Z,33.19
2022-08-02T10:38:46.000Z,33.22
2022-08-02T10:39:46.000Z,33.12
2022-08-02T10:40:46.000Z,33.22
2022-08-02T10:41:46.000Z,33.32
2022-08-02T10:42:46.000Z,33.52
2022-08-02T10:43:46.000Z,33.49
2022-08-02T10:44:45.000Z,33.53
2022-08-02T10:45:45.000Z,33.64
2022-08-02T10:46:45.000Z,33.77
2022-08-02T10:47:45.000Z,33.58
2022-08-02T10:48:45.000Z,33.39
2022-08-02T10:49:45.000Z,33.31
2022-08-02T10:50:45.000Z,33.28
2022-08-02T10:51:45.000Z,33.30
2022-08-02T10:52:45.000Z,33.22
2022-08-02T10:53:45.000Z,33.30
2022-08-02T10:54:45.000Z,33.22
2022-08-02T10:55:45.000Z,32.95
2022-08-02T10:56:45.000Z,32.87
2022-08-02T10:57:45.000Z,33.00
2022-08-02T10:58:45.000Z,33.01
2022-08-02T10:59:45.000Z,33.07
2022-08-02T11:00:45.000Z,33.24
2022-08-02T11:01:45.000Z,33.32
2022-08-02T11:02:45.000Z,33.22
2022-08-02T11:03:45.000Z,33.30
2022-08-02T11:04:45.000Z,33.37
2022-08-02T11:05:45.000Z,33.47
2022-08-02T11:06:45.000Z,33.68
2022-08-02T11:07:45.000Z,33.79
2022-08-02T11:08:45.000Z,33.90
2022-08-02T11:09:45.000Z,34.11
2022-08-02T11:10:45.000Z,34.24
2022-08-02T11:11:45.000Z,34.33
2022-08-02T11:12:45.000Z,34.54
2022-08-02T11:13:45.000Z,34.55
2022-08-02T11:14:45.000Z,34.70
2022-08-02T11:15:45.000Z,34.66
2022-08-02T11:16:45.000Z,34.70
2022-08-02T11:17:45.000Z,34.83
2022-08-02T11:18:45.000Z,34.89
2022-08-02T11:19:45.000Z,34.92
2022-08-02T11:20:45.000Z,34.92
2022-08-02T11:21:45.000Z,34.92
2022-08-02T11:22:45.000Z,35.07
2022-08-02T11:23:45.000Z,35.22
2022-08-02T11:24:45.000Z,35.30
2022-08-02T11:25:45.000Z,35.42
2022-08-02T11:26:45.000Z,35.45
2022-08-02T11:27:45.000Z,35.45
2022-08-02T11:28:45.000Z,35.55
2022-08-02T11:29:45.000Z,35.56